SWA5150 KPIT-KMYR
Flight info
| Callsign | SWA5150 |
|---|---|
| Flight time | 1h 10m |
| Altitude | 38000 |
| Route | CKB ROA GSO/N0455F390 ALWZZ |
| Aircraft | B38M/M-SDE1FGHILORVWXY/HB1 |
Departure
| Time | 2026-04-26 15:42 |
|---|---|
| Airport | Pittsburgh International Airport (KPIT) |
Arrival
| Time | 2026-04-26 16:52 |
|---|---|
| Airport | Myrtle Beach International Airport (KMYR) |
| Time | Latitude | Longitude | Altitude | Speed | Heading |
|---|---|---|---|---|---|
| 2026-04-26 15:07 | 40.49856 | -80.24192 | 1158 ft | 0 kts | 172° |
| 2026-04-26 15:09 | 40.49849 | -80.24191 | 1158 ft | 0 kts | 172° |
| 2026-04-26 15:25 | 40.49850 | -80.24191 | 1158 ft | 0 kts | 172° |
| 2026-04-26 15:32 | 40.49870 | -80.24193 | 1157 ft | 3 kts | 180° |
| 2026-04-26 15:32 | 40.49899 | -80.24198 | 1156 ft | 3 kts | 141° |
| 2026-04-26 15:32 | 40.49909 | -80.24217 | 1155 ft | 3 kts | 104° |
| 2026-04-26 15:33 | 40.49911 | -80.24236 | 1155 ft | 0 kts | 92° |
| 2026-04-26 15:34 | 40.49911 | -80.24224 | 1155 ft | 3 kts | 92° |
| 2026-04-26 15:35 | 40.49910 | -80.24188 | 1157 ft | 5 kts | 92° |
| 2026-04-26 15:35 | 40.49908 | -80.24127 | 1158 ft | 8 kts | 92° |
| 2026-04-26 15:35 | 40.49906 | -80.24044 | 1158 ft | 10 kts | 91° |
| 2026-04-26 15:35 | 40.49904 | -80.23947 | 1158 ft | 10 kts | 91° |
| 2026-04-26 15:36 | 40.49863 | -80.23873 | 1158 ft | 11 kts | 165° |
| 2026-04-26 15:36 | 40.49777 | -80.23875 | 1158 ft | 14 kts | 182° |
| 2026-04-26 15:36 | 40.49686 | -80.23879 | 1158 ft | 12 kts | 181° |
| 2026-04-26 15:36 | 40.49600 | -80.23882 | 1158 ft | 11 kts | 182° |
| 2026-04-26 15:37 | 40.49525 | -80.23885 | 1158 ft | 9 kts | 182° |
| 2026-04-26 15:37 | 40.49450 | -80.23889 | 1158 ft | 12 kts | 182° |
| 2026-04-26 15:37 | 40.49399 | -80.23892 | 1158 ft | 10 kts | 182° |
| 2026-04-26 15:37 | 40.49307 | -80.23896 | 1158 ft | 9 kts | 181° |
| 2026-04-26 15:38 | 40.49262 | -80.23897 | 1158 ft | 9 kts | 181° |
| 2026-04-26 15:38 | 40.49194 | -80.23900 | 1158 ft | 10 kts | 181° |
| 2026-04-26 15:38 | 40.49117 | -80.23902 | 1157 ft | 12 kts | 181° |
| 2026-04-26 15:38 | 40.49068 | -80.23976 | 1156 ft | 13 kts | 271° |
| 2026-04-26 15:39 | 40.49071 | -80.24104 | 1156 ft | 15 kts | 272° |
| 2026-04-26 15:39 | 40.49074 | -80.24236 | 1155 ft | 12 kts | 272° |
| 2026-04-26 15:39 | 40.49077 | -80.24356 | 1155 ft | 14 kts | 272° |
| 2026-04-26 15:39 | 40.49079 | -80.24437 | 1156 ft | 14 kts | 272° |
| 2026-04-26 15:40 | 40.49085 | -80.24616 | 1156 ft | 13 kts | 271° |
| 2026-04-26 15:40 | 40.49085 | -80.24726 | 1156 ft | 11 kts | 260° |
| 2026-04-26 15:40 | 40.49043 | -80.24781 | 1154 ft | 10 kts | 187° |
| 2026-04-26 15:40 | 40.48992 | -80.24716 | 1154 ft | 12 kts | 100° |
| 2026-04-26 15:41 | 40.48987 | -80.24598 | 1154 ft | 15 kts | 92° |
| 2026-04-26 15:41 | 40.48974 | -80.24127 | 1154 ft | 96 kts | 92° |
| 2026-04-26 15:41 | 40.48942 | -80.22895 | 1165 ft | 169 kts | 92° |
| 2026-04-26 15:41 | 40.48899 | -80.21261 | 1379 ft | 187 kts | 92° |
| 2026-04-26 15:42 | 40.48850 | -80.19480 | 1792 ft | 204 kts | 91° |
| 2026-04-26 15:42 | 40.48783 | -80.17530 | 2253 ft | 223 kts | 95° |
| 2026-04-26 15:42 | 40.48131 | -80.15640 | 2664 ft | 240 kts | 133° |
| 2026-04-26 15:42 | 40.46606 | -80.14704 | 3129 ft | 252 kts | 173° |
| 2026-04-26 15:43 | 40.44907 | -80.15270 | 3597 ft | 260 kts | 214° |
| 2026-04-26 15:43 | 40.43797 | -80.17121 | 4066 ft | 263 kts | 248° |
| 2026-04-26 15:43 | 40.41594 | -80.20899 | 5098 ft | 277 kts | 201° |
| 2026-04-26 15:44 | 40.39695 | -80.21285 | 5594 ft | 281 kts | 174° |
| 2026-04-26 15:44 | 40.35697 | -80.20995 | 6550 ft | 295 kts | 179° |
| 2026-04-26 15:44 | 40.33625 | -80.21002 | 7003 ft | 301 kts | 180° |
| 2026-04-26 15:45 | 40.29381 | -80.21146 | 8221 ft | 304 kts | 181° |
| 2026-04-26 15:45 | 40.27274 | -80.21244 | 9221 ft | 305 kts | 181° |
| 2026-04-26 15:46 | 40.22893 | -80.21474 | 10584 ft | 327 kts | 181° |
| 2026-04-26 15:46 | 40.20551 | -80.21602 | 10976 ft | 347 kts | 181° |
| 2026-04-26 15:46 | 40.18080 | -80.21739 | 11426 ft | 363 kts | 182° |
| 2026-04-26 15:46 | 40.16391 | -80.21832 | 11818 ft | 370 kts | 182° |
| 2026-04-26 15:47 | 40.12934 | -80.22023 | 12974 ft | 374 kts | 182° |
| 2026-04-26 15:47 | 40.07678 | -80.22312 | 14574 ft | 382 kts | 182° |
| 2026-04-26 15:47 | 40.05009 | -80.22458 | 15399 ft | 385 kts | 182° |
| 2026-04-26 15:48 | 40.02325 | -80.22605 | 16202 ft | 388 kts | 182° |
| 2026-04-26 15:48 | 39.99619 | -80.22754 | 17018 ft | 391 kts | 182° |
| 2026-04-26 15:48 | 39.96885 | -80.22903 | 17782 ft | 394 kts | 182° |
| 2026-04-26 15:48 | 39.94135 | -80.23053 | 18551 ft | 397 kts | 182° |
| 2026-04-26 15:49 | 39.91362 | -80.23205 | 19208 ft | 400 kts | 182° |
| 2026-04-26 15:49 | 39.88565 | -80.23358 | 19848 ft | 404 kts | 183° |
| 2026-04-26 15:49 | 39.85747 | -80.23512 | 20501 ft | 407 kts | 183° |
| 2026-04-26 15:49 | 39.82912 | -80.23666 | 21143 ft | 410 kts | 182° |
| 2026-04-26 15:50 | 39.80048 | -80.23823 | 21761 ft | 413 kts | 182° |
| 2026-04-26 15:50 | 39.77165 | -80.23979 | 22391 ft | 416 kts | 182° |
| 2026-04-26 15:50 | 39.74263 | -80.24137 | 22982 ft | 420 kts | 182° |
| 2026-04-26 15:50 | 39.71332 | -80.24297 | 23608 ft | 423 kts | 182° |
| 2026-04-26 15:51 | 39.68381 | -80.24457 | 24089 ft | 427 kts | 182° |
| 2026-04-26 15:51 | 39.65403 | -80.24619 | 24599 ft | 429 kts | 183° |
| 2026-04-26 15:51 | 39.62449 | -80.24778 | 25058 ft | 432 kts | 183° |
| 2026-04-26 15:51 | 39.59434 | -80.24941 | 25538 ft | 435 kts | 182° |
| 2026-04-26 15:52 | 39.56402 | -80.25106 | 26003 ft | 438 kts | 182° |
| 2026-04-26 15:52 | 39.53345 | -80.25271 | 26460 ft | 441 kts | 183° |
| 2026-04-26 15:52 | 39.50276 | -80.25437 | 26909 ft | 444 kts | 183° |
| 2026-04-26 15:52 | 39.48187 | -80.25549 | 27208 ft | 446 kts | 183° |
| 2026-04-26 15:53 | 39.44062 | -80.25772 | 27766 ft | 450 kts | 183° |
| 2026-04-26 15:53 | 39.40928 | -80.25941 | 28205 ft | 452 kts | 183° |
| 2026-04-26 15:53 | 39.37780 | -80.26110 | 28640 ft | 455 kts | 183° |
| 2026-04-26 15:53 | 39.34602 | -80.26281 | 29110 ft | 457 kts | 183° |
| 2026-04-26 15:54 | 39.31414 | -80.26452 | 29507 ft | 460 kts | 183° |
| 2026-04-26 15:54 | 39.28202 | -80.26625 | 29912 ft | 463 kts | 183° |
| 2026-04-26 15:54 | 39.24977 | -80.26703 | 30271 ft | 467 kts | 178° |
| 2026-04-26 15:54 | 39.21726 | -80.26370 | 30636 ft | 468 kts | 176° |
| 2026-04-26 15:55 | 39.18467 | -80.26044 | 30957 ft | 471 kts | 176° |
| 2026-04-26 15:55 | 39.15191 | -80.25705 | 31307 ft | 473 kts | 176° |
| 2026-04-26 15:55 | 39.11911 | -80.25360 | 31682 ft | 474 kts | 176° |
| 2026-04-26 15:55 | 39.08621 | -80.25011 | 32061 ft | 475 kts | 176° |
| 2026-04-26 15:56 | 39.05337 | -80.24664 | 32526 ft | 473 kts | 176° |
| 2026-04-26 15:56 | 39.02062 | -80.24318 | 33003 ft | 472 kts | 176° |
| 2026-04-26 15:56 | 38.98794 | -80.23974 | 33487 ft | 470 kts | 177° |
| 2026-04-26 15:56 | 38.95539 | -80.23630 | 33943 ft | 469 kts | 177° |
| 2026-04-26 15:57 | 38.92291 | -80.23289 | 34361 ft | 467 kts | 177° |
| 2026-04-26 15:57 | 38.89052 | -80.22948 | 34723 ft | 467 kts | 177° |
| 2026-04-26 15:57 | 38.85819 | -80.22608 | 35091 ft | 466 kts | 177° |
| 2026-04-26 15:57 | 38.83678 | -80.22384 | 35330 ft | 466 kts | 177° |
| 2026-04-26 15:58 | 38.79358 | -80.21931 | 35788 ft | 465 kts | 178° |
| 2026-04-26 15:58 | 38.76132 | -80.21592 | 36128 ft | 465 kts | 178° |
| 2026-04-26 15:58 | 38.72913 | -80.21255 | 36461 ft | 464 kts | 178° |
| 2026-04-26 15:58 | 38.69691 | -80.20918 | 36777 ft | 464 kts | 178° |
| 2026-04-26 15:59 | 38.66482 | -80.20583 | 37087 ft | 463 kts | 178° |
| 2026-04-26 15:59 | 38.63266 | -80.20247 | 37414 ft | 463 kts | 178° |
| 2026-04-26 15:59 | 38.60059 | -80.19912 | 37728 ft | 462 kts | 178° |
| 2026-04-26 15:59 | 38.56898 | -80.19583 | 38015 ft | 462 kts | 178° |
| 2026-04-26 16:00 | 38.53647 | -80.19245 | 38104 ft | 463 kts | 179° |
| 2026-04-26 16:00 | 38.47257 | -80.18581 | 38059 ft | 460 kts | 179° |
| 2026-04-26 16:01 | 38.40911 | -80.17923 | 38065 ft | 461 kts | 179° |
| 2026-04-26 16:01 | 38.34514 | -80.17260 | 38055 ft | 461 kts | 179° |
| 2026-04-26 16:02 | 38.28115 | -80.16598 | 38045 ft | 460 kts | 179° |
| 2026-04-26 16:02 | 38.21770 | -80.15943 | 38041 ft | 458 kts | 179° |
| 2026-04-26 16:03 | 38.15404 | -80.15288 | 38054 ft | 459 kts | 179° |
| 2026-04-26 16:03 | 38.09036 | -80.14632 | 38058 ft | 459 kts | 179° |
| 2026-04-26 16:04 | 38.02670 | -80.13978 | 38066 ft | 459 kts | 179° |
| 2026-04-26 16:04 | 37.96305 | -80.13326 | 38090 ft | 459 kts | 179° |
| 2026-04-26 16:05 | 37.89935 | -80.12675 | 38051 ft | 458 kts | 179° |
| 2026-04-26 16:05 | 37.83570 | -80.12024 | 38077 ft | 459 kts | 179° |
| 2026-04-26 16:06 | 37.77204 | -80.11375 | 38057 ft | 459 kts | 179° |
| 2026-04-26 16:06 | 37.70834 | -80.10726 | 38057 ft | 460 kts | 179° |
| 2026-04-26 16:07 | 37.64456 | -80.10078 | 38070 ft | 460 kts | 179° |
| 2026-04-26 16:07 | 37.58119 | -80.09435 | 38081 ft | 460 kts | 179° |
| 2026-04-26 16:08 | 37.51740 | -80.08789 | 38076 ft | 460 kts | 179° |
| 2026-04-26 16:08 | 37.45365 | -80.08145 | 38100 ft | 460 kts | 179° |
| 2026-04-26 16:09 | 37.38983 | -80.07500 | 38104 ft | 460 kts | 179° |
| 2026-04-26 16:09 | 37.32606 | -80.06934 | 38109 ft | 459 kts | 180° |
| 2026-04-26 16:10 | 37.26228 | -80.06482 | 38074 ft | 459 kts | 180° |
| 2026-04-26 16:10 | 37.19853 | -80.06013 | 38093 ft | 459 kts | 180° |
| 2026-04-26 16:11 | 37.13477 | -80.05543 | 38089 ft | 459 kts | 180° |
| 2026-04-26 16:11 | 37.07101 | -80.05074 | 38087 ft | 459 kts | 180° |
| 2026-04-26 16:12 | 37.00718 | -80.04605 | 38101 ft | 461 kts | 180° |
| 2026-04-26 16:12 | 36.91108 | -80.03900 | 38104 ft | 461 kts | 180° |
| 2026-04-26 16:13 | 36.84708 | -80.03432 | 38104 ft | 461 kts | 180° |
| 2026-04-26 16:13 | 36.78304 | -80.02964 | 38110 ft | 462 kts | 180° |
| 2026-04-26 16:14 | 36.71913 | -80.02498 | 38120 ft | 463 kts | 180° |
| 2026-04-26 16:15 | 36.62263 | -80.01796 | 38115 ft | 463 kts | 180° |
| 2026-04-26 16:15 | 36.55832 | -80.01329 | 38081 ft | 463 kts | 181° |
| 2026-04-26 16:16 | 36.46150 | -80.00627 | 38098 ft | 465 kts | 181° |
| 2026-04-26 16:16 | 36.39693 | -80.00160 | 38092 ft | 465 kts | 181° |
| 2026-04-26 16:17 | 36.33235 | -79.99694 | 38094 ft | 465 kts | 181° |
| 2026-04-26 16:17 | 36.26759 | -79.99227 | 38082 ft | 467 kts | 181° |
| 2026-04-26 16:18 | 36.17062 | -79.98530 | 38047 ft | 468 kts | 181° |
| 2026-04-26 16:19 | 36.10573 | -79.98064 | 37575 ft | 466 kts | 181° |
| 2026-04-26 16:19 | 36.07341 | -79.97832 | 37276 ft | 465 kts | 181° |
| 2026-04-26 16:19 | 36.02012 | -79.96479 | 36778 ft | 473 kts | 163° |
| 2026-04-26 16:20 | 35.97892 | -79.94714 | 36480 ft | 473 kts | 165° |
| 2026-04-26 16:20 | 35.91658 | -79.92106 | 35963 ft | 473 kts | 165° |
| 2026-04-26 16:20 | 35.88553 | -79.90786 | 35714 ft | 472 kts | 164° |
| 2026-04-26 16:21 | 35.85449 | -79.89463 | 35474 ft | 471 kts | 164° |
| 2026-04-26 16:21 | 35.82353 | -79.88144 | 35226 ft | 471 kts | 165° |
| 2026-04-26 16:21 | 35.79264 | -79.86829 | 34980 ft | 469 kts | 165° |
| 2026-04-26 16:21 | 35.76187 | -79.85519 | 34751 ft | 468 kts | 165° |
| 2026-04-26 16:22 | 35.73113 | -79.84212 | 34521 ft | 467 kts | 165° |
| 2026-04-26 16:22 | 35.70048 | -79.82911 | 34291 ft | 466 kts | 165° |
| 2026-04-26 16:22 | 35.66983 | -79.81610 | 34058 ft | 465 kts | 165° |
| 2026-04-26 16:22 | 35.63927 | -79.80314 | 33788 ft | 465 kts | 165° |
| 2026-04-26 16:23 | 35.60870 | -79.79018 | 33521 ft | 463 kts | 165° |
| 2026-04-26 16:23 | 35.57841 | -79.77735 | 33252 ft | 460 kts | 165° |
| 2026-04-26 16:23 | 35.54813 | -79.76454 | 32990 ft | 460 kts | 165° |
| 2026-04-26 16:23 | 35.51783 | -79.75174 | 32727 ft | 460 kts | 165° |
| 2026-04-26 16:24 | 35.48756 | -79.73895 | 32473 ft | 461 kts | 165° |
| 2026-04-26 16:24 | 35.45719 | -79.72613 | 32212 ft | 461 kts | 165° |
| 2026-04-26 16:24 | 35.42683 | -79.71333 | 31945 ft | 462 kts | 165° |
| 2026-04-26 16:24 | 35.39642 | -79.70051 | 31684 ft | 462 kts | 165° |
| 2026-04-26 16:25 | 35.36599 | -79.68770 | 31434 ft | 463 kts | 165° |
| 2026-04-26 16:25 | 35.33548 | -79.67487 | 31197 ft | 463 kts | 165° |
| 2026-04-26 16:25 | 35.30502 | -79.66206 | 30925 ft | 464 kts | 165° |
| 2026-04-26 16:25 | 35.27446 | -79.64923 | 30682 ft | 464 kts | 165° |
| 2026-04-26 16:26 | 35.24388 | -79.63639 | 30444 ft | 464 kts | 165° |
| 2026-04-26 16:26 | 35.22363 | -79.62790 | 30287 ft | 464 kts | 165° |
| 2026-04-26 16:26 | 35.18280 | -79.61079 | 29951 ft | 464 kts | 165° |
| 2026-04-26 16:26 | 35.15222 | -79.59798 | 29649 ft | 464 kts | 165° |
| 2026-04-26 16:27 | 35.13197 | -79.58951 | 29466 ft | 464 kts | 165° |
| 2026-04-26 16:27 | 35.10141 | -79.57673 | 29185 ft | 464 kts | 165° |
| 2026-04-26 16:27 | 35.07086 | -79.56396 | 28913 ft | 465 kts | 165° |
| 2026-04-26 16:27 | 35.04023 | -79.55117 | 28603 ft | 464 kts | 165° |
| 2026-04-26 16:28 | 35.00969 | -79.53843 | 28330 ft | 464 kts | 165° |
| 2026-04-26 16:28 | 34.97915 | -79.52570 | 28068 ft | 464 kts | 165° |
| 2026-04-26 16:28 | 34.94864 | -79.51300 | 27800 ft | 464 kts | 165° |
| 2026-04-26 16:28 | 34.91808 | -79.50028 | 27532 ft | 464 kts | 165° |
| 2026-04-26 16:29 | 34.88755 | -79.48759 | 27280 ft | 464 kts | 165° |
| 2026-04-26 16:29 | 34.85695 | -79.47487 | 27026 ft | 464 kts | 166° |
| 2026-04-26 16:29 | 34.82639 | -79.46218 | 26765 ft | 464 kts | 166° |
| 2026-04-26 16:29 | 34.79581 | -79.44949 | 26513 ft | 464 kts | 165° |
| 2026-04-26 16:30 | 34.76524 | -79.43682 | 26225 ft | 466 kts | 166° |
| 2026-04-26 16:30 | 34.73456 | -79.42411 | 25963 ft | 466 kts | 165° |
| 2026-04-26 16:30 | 34.70401 | -79.41128 | 25715 ft | 464 kts | 164° |
| 2026-04-26 16:30 | 34.67389 | -79.39784 | 25359 ft | 456 kts | 164° |
| 2026-04-26 16:31 | 34.64391 | -79.38451 | 24298 ft | 462 kts | 164° |
| 2026-04-26 16:31 | 34.61352 | -79.37105 | 23191 ft | 468 kts | 164° |
| 2026-04-26 16:31 | 34.58272 | -79.35742 | 22027 ft | 472 kts | 163° |
| 2026-04-26 16:31 | 34.55201 | -79.34384 | 21299 ft | 466 kts | 163° |
| 2026-04-26 16:32 | 34.52179 | -79.33050 | 20615 ft | 456 kts | 163° |
| 2026-04-26 16:32 | 34.49251 | -79.31758 | 19669 ft | 442 kts | 163° |
| 2026-04-26 16:32 | 34.46426 | -79.30513 | 18646 ft | 434 kts | 163° |
| 2026-04-26 16:32 | 34.43604 | -79.29269 | 17544 ft | 427 kts | 162° |
| 2026-04-26 16:33 | 34.40838 | -79.28052 | 16468 ft | 419 kts | 162° |
| 2026-04-26 16:33 | 34.38121 | -79.26857 | 15457 ft | 412 kts | 162° |
| 2026-04-26 16:33 | 34.35455 | -79.25685 | 14520 ft | 404 kts | 162° |
| 2026-04-26 16:33 | 34.32839 | -79.24536 | 13615 ft | 397 kts | 161° |
| 2026-04-26 16:34 | 34.30261 | -79.23404 | 12728 ft | 389 kts | 161° |
| 2026-04-26 16:34 | 34.27766 | -79.22310 | 12201 ft | 373 kts | 161° |
| 2026-04-26 16:34 | 34.25354 | -79.21252 | 11752 ft | 367 kts | 162° |
| 2026-04-26 16:34 | 34.22960 | -79.20203 | 11459 ft | 365 kts | 162° |
| 2026-04-26 16:35 | 34.20576 | -79.19160 | 11295 ft | 364 kts | 162° |
| 2026-04-26 16:35 | 34.18195 | -79.18117 | 11104 ft | 363 kts | 162° |
| 2026-04-26 16:35 | 34.15821 | -79.17078 | 11002 ft | 363 kts | 162° |
| 2026-04-26 16:35 | 34.13448 | -79.16042 | 10994 ft | 363 kts | 162° |
| 2026-04-26 16:36 | 34.11074 | -79.15004 | 10991 ft | 363 kts | 162° |
| 2026-04-26 16:36 | 34.08696 | -79.13966 | 10991 ft | 363 kts | 162° |
| 2026-04-26 16:36 | 34.06322 | -79.12930 | 10988 ft | 363 kts | 162° |
| 2026-04-26 16:36 | 34.03949 | -79.11894 | 10973 ft | 363 kts | 162° |
| 2026-04-26 16:37 | 34.01570 | -79.10857 | 10975 ft | 363 kts | 162° |
| 2026-04-26 16:37 | 33.99198 | -79.09824 | 10955 ft | 358 kts | 162° |
| 2026-04-26 16:37 | 33.96881 | -79.08815 | 10242 ft | 352 kts | 162° |
| 2026-04-26 16:37 | 33.94601 | -79.07823 | 9640 ft | 343 kts | 162° |
| 2026-04-26 16:38 | 33.92386 | -79.06859 | 9079 ft | 333 kts | 162° |
| 2026-04-26 16:38 | 33.90239 | -79.05926 | 8575 ft | 323 kts | 162° |
| 2026-04-26 16:38 | 33.88159 | -79.05023 | 8121 ft | 313 kts | 162° |
| 2026-04-26 16:38 | 33.86146 | -79.04148 | 7720 ft | 303 kts | 162° |
| 2026-04-26 16:39 | 33.84214 | -79.03310 | 7308 ft | 288 kts | 161° |
| 2026-04-26 16:39 | 33.82369 | -79.02510 | 6797 ft | 284 kts | 161° |
| 2026-04-26 16:39 | 33.80499 | -79.01699 | 6302 ft | 280 kts | 161° |
| 2026-04-26 16:39 | 33.78688 | -79.00915 | 5891 ft | 273 kts | 161° |
| 2026-04-26 16:40 | 33.76931 | -79.00155 | 5590 ft | 272 kts | 160° |
| 2026-04-26 16:40 | 33.75157 | -78.99387 | 5297 ft | 270 kts | 160° |
| 2026-04-26 16:40 | 33.73402 | -78.98627 | 5004 ft | 263 kts | 160° |
| 2026-04-26 16:40 | 33.71715 | -78.97898 | 4740 ft | 253 kts | 161° |
| 2026-04-26 16:41 | 33.70087 | -78.97194 | 4520 ft | 244 kts | 161° |
| 2026-04-26 16:41 | 33.68524 | -78.96518 | 4292 ft | 234 kts | 161° |
| 2026-04-26 16:41 | 33.67026 | -78.95871 | 4090 ft | 225 kts | 161° |
| 2026-04-26 16:41 | 33.65575 | -78.95245 | 3868 ft | 218 kts | 161° |
| 2026-04-26 16:42 | 33.64172 | -78.94640 | 3635 ft | 211 kts | 160° |
| 2026-04-26 16:42 | 33.62811 | -78.94053 | 3422 ft | 205 kts | 161° |
| 2026-04-26 16:42 | 33.61485 | -78.93481 | 3196 ft | 200 kts | 160° |
| 2026-04-26 16:42 | 33.60179 | -78.92915 | 3009 ft | 199 kts | 160° |
| 2026-04-26 16:43 | 33.58879 | -78.92347 | 2942 ft | 199 kts | 160° |
| 2026-04-26 16:43 | 33.57581 | -78.91792 | 2954 ft | 198 kts | 163° |
| 2026-04-26 16:43 | 33.56234 | -78.91763 | 2895 ft | 194 kts | 200° |
| 2026-04-26 16:43 | 33.55021 | -78.92455 | 3071 ft | 195 kts | 211° |
| 2026-04-26 16:44 | 33.53827 | -78.93249 | 3093 ft | 197 kts | 211° |
| 2026-04-26 16:44 | 33.52633 | -78.94051 | 3040 ft | 197 kts | 211° |
| 2026-04-26 16:44 | 33.51442 | -78.94852 | 2996 ft | 196 kts | 212° |
| 2026-04-26 16:44 | 33.50235 | -78.95610 | 2947 ft | 197 kts | 200° |
| 2026-04-26 16:45 | 33.48885 | -78.95627 | 2869 ft | 197 kts | 161° |
| 2026-04-26 16:45 | 33.47800 | -78.94667 | 2921 ft | 197 kts | 128° |
| 2026-04-26 16:45 | 33.47018 | -78.93313 | 2910 ft | 197 kts | 121° |
| 2026-04-26 16:45 | 33.46276 | -78.91937 | 2679 ft | 196 kts | 121° |
| 2026-04-26 16:46 | 33.45602 | -78.90523 | 2435 ft | 195 kts | 105° |
| 2026-04-26 16:46 | 33.45619 | -78.88930 | 2216 ft | 195 kts | 68° |
| 2026-04-26 16:46 | 33.46408 | -78.87697 | 2046 ft | 186 kts | 35° |
| 2026-04-26 16:46 | 33.47470 | -78.86839 | 1984 ft | 180 kts | 31° |
| 2026-04-26 16:47 | 33.48511 | -78.86037 | 1911 ft | 180 kts | 31° |
| 2026-04-26 16:47 | 33.49561 | -78.85231 | 1900 ft | 179 kts | 31° |
| 2026-04-26 16:47 | 33.50622 | -78.84407 | 1935 ft | 180 kts | 31° |
| 2026-04-26 16:47 | 33.51671 | -78.83589 | 1977 ft | 180 kts | 31° |
| 2026-04-26 16:48 | 33.52798 | -78.83037 | 1951 ft | 178 kts | 2° |
| 2026-04-26 16:48 | 33.53962 | -78.83444 | 1892 ft | 178 kts | 328° |
| 2026-04-26 16:48 | 33.54942 | -78.84361 | 1995 ft | 180 kts | 321° |
| 2026-04-26 16:48 | 33.55903 | -78.85326 | 2006 ft | 180 kts | 321° |
| 2026-04-26 16:49 | 33.56855 | -78.86298 | 2006 ft | 179 kts | 321° |
| 2026-04-26 16:49 | 33.57792 | -78.87247 | 1954 ft | 167 kts | 321° |
| 2026-04-26 16:49 | 33.58598 | -78.88070 | 1996 ft | 143 kts | 321° |
| 2026-04-26 16:49 | 33.59349 | -78.88849 | 1794 ft | 141 kts | 321° |
| 2026-04-26 16:50 | 33.60078 | -78.89611 | 1557 ft | 138 kts | 321° |
| 2026-04-26 16:50 | 33.60800 | -78.90363 | 1360 ft | 138 kts | 321° |
| 2026-04-26 16:50 | 33.61550 | -78.91077 | 1124 ft | 137 kts | 330° |
| 2026-04-26 16:50 | 33.62422 | -78.91492 | 949 ft | 135 kts | 347° |
| 2026-04-26 16:51 | 33.63336 | -78.91687 | 752 ft | 133 kts | 352° |
| 2026-04-26 16:51 | 33.64247 | -78.91898 | 580 ft | 134 kts | 350° |
| 2026-04-26 16:51 | 33.65161 | -78.92132 | 401 ft | 135 kts | 349° |
| 2026-04-26 16:51 | 33.66069 | -78.92358 | 194 ft | 132 kts | 348° |
| 2026-04-26 16:52 | 33.66916 | -78.92568 | 43 ft | 115 kts | 348° |
| 2026-04-26 16:52 | 33.67407 | -78.92691 | 34 ft | 104 kts | 348° |
| 2026-04-26 16:52 | 33.68136 | -78.92873 | 33 ft | 32 kts | 348° |
| 2026-04-26 16:52 | 33.68283 | -78.92884 | 34 ft | 21 kts | 4° |
| 2026-04-26 16:53 | 33.68382 | -78.92867 | 35 ft | 12 kts | 16° |
| 2026-04-26 16:53 | 33.68430 | -78.92847 | 34 ft | 1 kts | 21° |
| 2026-04-26 16:53 | 33.68449 | -78.92838 | 34 ft | 5 kts | 21° |
| 2026-04-26 16:53 | 33.68486 | -78.92810 | 34 ft | 8 kts | 55° |
| 2026-04-26 16:54 | 33.68470 | -78.92754 | 34 ft | 9 kts | 154° |
| 2026-04-26 16:54 | 33.68399 | -78.92733 | 34 ft | 12 kts | 168° |
| 2026-04-26 16:54 | 33.68324 | -78.92714 | 34 ft | 12 kts | 168° |
| 2026-04-26 16:54 | 33.68242 | -78.92693 | 34 ft | 12 kts | 168° |
| 2026-04-26 16:55 | 33.68177 | -78.92628 | 34 ft | 13 kts | 95° |
| 2026-04-26 16:55 | 33.68206 | -78.92542 | 34 ft | 12 kts | 34° |
| 2026-04-26 16:55 | 33.68277 | -78.92502 | 34 ft | 7 kts | 36° |
| 2026-04-26 16:55 | 33.68296 | -78.92451 | 34 ft | 6 kts | 96° |
| 2026-04-26 16:56 | 33.68290 | -78.92425 | 34 ft | 0 kts | 109° |